sensor_id;sensor_type;location;lat;lon;timestamp;pressure;altitude;pressure_sealevel;temperature;humidity
67029;BME280;53934;52.142;11.738;2022-08-21T00:02:20;101136.00;;;20.77;67.49
67029;BME280;53934;52.142;11.738;2022-08-21T00:04:46;101130.06;;;20.94;66.90
67029;BME280;53934;52.142;11.738;2022-08-21T00:07:13;101129.78;;;20.97;65.81
67029;BME280;53934;52.142;11.738;2022-08-21T00:09:40;101130.63;;;20.98;66.05
67029;BME280;53934;52.142;11.738;2022-08-21T00:12:08;101132.88;;;21.02;65.34
67029;BME280;53934;52.142;11.738;2022-08-21T00:14:35;101133.56;;;20.95;65.47
67029;BME280;53934;52.142;11.738;2022-08-21T00:17:02;101130.50;;;21.09;65.31
67029;BME280;53934;52.142;11.738;2022-08-21T00:19:29;101128.84;;;20.68;65.87
67029;BME280;53934;52.142;11.738;2022-08-21T00:21:56;101114.53;;;20.69;66.45
67029;BME280;53934;52.142;11.738;2022-08-21T00:24:24;101126.03;;;20.18;67.79
67029;BME280;53934;52.142;11.738;2022-08-21T00:26:51;101126.91;;;20.39;67.60
67029;BME280;53934;52.142;11.738;2022-08-21T00:29:19;101124.47;;;20.67;66.41
67029;BME280;53934;52.142;11.738;2022-08-21T00:31:45;101129.25;;;20.63;66.88
67029;BME280;53934;52.142;11.738;2022-08-21T00:34:13;101119.72;;;20.70;66.07
67029;BME280;53934;52.142;11.738;2022-08-21T00:36:40;101136.84;;;20.77;65.25
67029;BME280;53934;52.142;11.738;2022-08-21T00:39:07;101133.00;;;20.91;66.11
67029;BME280;53934;52.142;11.738;2022-08-21T00:41:36;101122.34;;;21.01;65.12
67029;BME280;53934;52.142;11.738;2022-08-21T00:44:02;101127.47;;;21.13;63.82
67029;BME280;53934;52.142;11.738;2022-08-21T00:46:31;101131.16;;;21.31;63.10
67029;BME280;53934;52.142;11.738;2022-08-21T00:48:57;101130.81;;;21.25;62.99
67029;BME280;53934;52.142;11.738;2022-08-21T00:51:25;101132.09;;;21.40;62.67
67029;BME280;53934;52.142;11.738;2022-08-21T00:53:57;101120.91;;;21.46;62.03
67029;BME280;53934;52.142;11.738;2022-08-21T00:56:27;101123.56;;;21.46;62.39
67029;BME280;53934;52.142;11.738;2022-08-21T00:58:55;101120.47;;;21.41;62.57
67029;BME280;53934;52.142;11.738;2022-08-21T01:01:22;101116.56;;;21.35;63.23
67029;BME280;53934;52.142;11.738;2022-08-21T01:03:50;101120.59;;;21.40;62.58
67029;BME280;53934;52.142;11.738;2022-08-21T01:06:17;101116.19;;;21.10;63.05
67029;BME280;53934;52.142;11.738;2022-08-21T01:08:44;101119.84;;;21.09;64.11
67029;BME280;53934;52.142;11.738;2022-08-21T01:11:11;101117.09;;;21.29;63.01
67029;BME280;53934;52.142;11.738;2022-08-21T01:13:37;101122.25;;;21.12;62.74
67029;BME280;53934;52.142;11.738;2022-08-21T01:16:11;101116.56;;;21.35;62.23
67029;BME280;53934;52.142;11.738;2022-08-21T01:18:39;101115.69;;;21.25;62.40
67029;BME280;53934;52.142;11.738;2022-08-21T01:21:09;101114.28;;;21.31;62.54
67029;BME280;53934;52.142;11.738;2022-08-21T01:23:38;101109.81;;;21.31;62.51
67029;BME280;53934;52.142;11.738;2022-08-21T01:26:05;101112.31;;;21.23;63.43
67029;BME280;53934;52.142;11.738;2022-08-21T01:28:34;101115.63;;;21.06;63.67
67029;BME280;53934;52.142;11.738;2022-08-21T01:31:05;101115.72;;;20.85;64.57
67029;BME280;53934;52.142;11.738;2022-08-21T01:33:33;101115.22;;;20.61;65.14
67029;BME280;53934;52.142;11.738;2022-08-21T01:35:59;101114.53;;;20.69;64.79
67029;BME280;53934;52.142;11.738;2022-08-21T01:38:27;101111.31;;;20.75;65.23
67029;BME280;53934;52.142;11.738;2022-08-21T01:40:53;101118.59;;;20.12;68.23
67029;BME280;53934;52.142;11.738;2022-08-21T01:43:20;101120.38;;;20.32;67.65
67029;BME280;53934;52.142;11.738;2022-08-21T01:45:46;101116.97;;;20.51;66.92
67029;BME280;53934;52.142;11.738;2022-08-21T01:48:12;101116.84;;;20.83;65.76
67029;BME280;53934;52.142;11.738;2022-08-21T01:50:39;101111.97;;;21.07;64.85
67029;BME280;53934;52.142;11.738;2022-08-21T01:53:05;101110.16;;;21.08;65.15
67029;BME280;53934;52.142;11.738;2022-08-21T01:55:33;101116.31;;;21.08;65.11
67029;BME280;53934;52.142;11.738;2022-08-21T01:57:59;101112.25;;;21.04;63.95
67029;BME280;53934;52.142;11.738;2022-08-21T02:00:26;101118.22;;;21.17;62.08
67029;BME280;53934;52.142;11.738;2022-08-21T02:02:53;101113.00;;;21.25;62.06
67029;BME280;53934;52.142;11.738;2022-08-21T02:05:20;101110.50;;;21.24;62.54
67029;BME280;53934;52.142;11.738;2022-08-21T02:07:48;101105.91;;;20.96;64.12
67029;BME280;53934;52.142;11.738;2022-08-21T02:10:19;101112.66;;;21.00;63.67
67029;BME280;53934;52.142;11.738;2022-08-21T02:12:47;101112.91;;;20.87;63.74
67029;BME280;53934;52.142;11.738;2022-08-21T02:15:15;101114.75;;;20.96;64.22
67029;BME280;53934;52.142;11.738;2022-08-21T02:17:45;101114.53;;;21.18;63.22
67029;BME280;53934;52.142;11.738;2022-08-21T02:20:16;101103.22;;;21.35;62.29
67029;BME280;53934;52.142;11.738;2022-08-21T02:22:43;101103.22;;;21.35;62.85
67029;BME280;53934;52.142;11.738;2022-08-21T02:25:09;101103.63;;;21.31;62.48
67029;BME280;53934;52.142;11.738;2022-08-21T02:27:38;101094.47;;;21.14;63.30
67029;BME280;53934;52.142;11.738;2022-08-21T02:30:08;101102.31;;;21.06;63.08
67029;BME280;53934;52.142;11.738;2022-08-21T02:32:35;101096.78;;;20.88;63.35
67029;BME280;53934;52.142;11.738;2022-08-21T02:35:02;101100.44;;;20.87;63.53
67029;BME280;53934;52.142;11.738;2022-08-21T02:37:29;101096.50;;;20.92;63.60
67029;BME280;53934;52.142;11.738;2022-08-21T02:39:55;101109.63;;;20.74;64.23
67029;BME280;53934;52.142;11.738;2022-08-21T02:42:22;101104.13;;;20.66;64.19
67029;BME280;53934;52.142;11.738;2022-08-21T02:44:48;101101.41;;;20.47;65.01
67029;BME280;53934;52.142;11.738;2022-08-21T02:47:16;101102.22;;;20.37;64.96
67029;BME280;53934;52.142;11.738;2022-08-21T02:49:42;101093.06;;;19.89;66.40
67029;BME280;53934;52.142;11.738;2022-08-21T02:52:08;101101.75;;;19.50;68.86
67029;BME280;53934;52.142;11.738;2022-08-21T02:54:36;101096.72;;;19.67;68.31
67029;BME280;53934;52.142;11.738;2022-08-21T02:57:03;101100.75;;;19.82;67.30
67029;BME280;53934;52.142;11.738;2022-08-21T02:59:29;101100.47;;;19.65;68.18
67029;BME280;53934;52.142;11.738;2022-08-21T03:01:56;101096.22;;;19.41;68.81
67029;BME280;53934;52.142;11.738;2022-08-21T03:04:24;101099.63;;;19.32;69.25
67029;BME280;53934;52.142;11.738;2022-08-21T03:06:50;101097.13;;;19.20;69.56
67029;BME280;53934;52.142;11.738;2022-08-21T03:09:17;101092.59;;;19.42;68.39
67029;BME280;53934;52.142;11.738;2022-08-21T03:11:43;101099.72;;;19.42;68.50
67029;BME280;53934;52.142;11.738;2022-08-21T03:14:10;101094.09;;;19.24;68.68
67029;BME280;53934;52.142;11.738;2022-08-21T03:16:37;101103.75;;;19.14;69.39
67029;BME280;53934;52.142;11.738;2022-08-21T03:19:03;101112.91;;;19.32;68.58
67029;BME280;53934;52.142;11.738;2022-08-21T03:21:31;101102.09;;;19.13;69.09
67029;BME280;53934;52.142;11.738;2022-08-21T03:23:58;101103.03;;;19.23;68.77
67029;BME280;53934;52.142;11.738;2022-08-21T03:26:24;101110.69;;;19.06;69.38
67029;BME280;53934;52.142;11.738;2022-08-21T03:28:51;101113.69;;;19.12;69.42
67029;BME280;53934;52.142;11.738;2022-08-21T03:31:17;101109.69;;;19.18;68.71
67029;BME280;53934;52.142;11.738;2022-08-21T03:33:44;101109.94;;;19.15;68.66
67029;BME280;53934;52.142;11.738;2022-08-21T03:36:10;101100.34;;;18.91;68.89
67029;BME280;53934;52.142;11.738;2022-08-21T03:38:38;101109.50;;;18.99;68.86
67029;BME280;53934;52.142;11.738;2022-08-21T03:41:06;101108.69;;;18.87;69.10
67029;BME280;53934;52.142;11.738;2022-08-21T03:43:32;101112.91;;;18.78;69.42
67029;BME280;53934;52.142;11.738;2022-08-21T03:46:00;101110.75;;;18.61;70.31
67029;BME280;53934;52.142;11.738;2022-08-21T03:48:28;101106.13;;;18.74;69.70
67029;BME280;53934;52.142;11.738;2022-08-21T03:50:55;101103.97;;;18.79;69.56
67029;BME280;53934;52.142;11.738;2022-08-21T03:53:21;101111.59;;;18.73;69.19
67029;BME280;53934;52.142;11.738;2022-08-21T03:55:50;101107.00;;;18.75;69.74
67029;BME280;53934;52.142;11.738;2022-08-21T03:58:20;101101.81;;;18.73;69.22
67029;BME280;53934;52.142;11.738;2022-08-21T04:00:49;101107.84;;;18.75;69.39
67029;BME280;53934;52.142;11.738;2022-08-21T04:03:17;101107.97;;;18.52;69.81
67029;BME280;53934;52.142;11.738;2022-08-21T04:05:45;101104.00;;;18.57;70.15
67029;BME280;53934;52.142;11.738;2022-08-21T04:08:14;101104.09;;;18.56;69.68
67029;BME280;53934;52.142;11.738;2022-08-21T04:10:43;101107.75;;;18.55;69.90
67029;BME280;53934;52.142;11.738;2022-08-21T04:13:11;101107.59;;;18.67;69.43
67029;BME280;53934;52.142;11.738;2022-08-21T04:15:38;101110.22;;;18.45;69.80
67029;BME280;53934;52.142;11.738;2022-08-21T04:18:04;101115.69;;;18.32;70.09
67029;BME280;53934;52.142;11.738;2022-08-21T04:20:31;101117.00;;;18.49;70.09
67029;BME280;53934;52.142;11.738;2022-08-21T04:22:58;101119.53;;;18.51;69.03
67029;BME280;53934;52.142;11.738;2022-08-21T04:25:24;101124.63;;;18.54;69.34
67029;BME280;53934;52.142;11.738;2022-08-21T04:27:51;101114.22;;;18.39;69.64
67029;BME280;53934;52.142;11.738;2022-08-21T04:30:21;101121.19;;;18.40;70.09
67029;BME280;53934;52.142;11.738;2022-08-21T04:32:49;101116.28;;;18.36;69.59
67029;BME280;53934;52.142;11.738;2022-08-21T04:35:19;101126.06;;;18.46;69.22
67029;BME280;53934;52.142;11.738;2022-08-21T04:37:46;101125.44;;;18.32;70.09
67029;BME280;53934;52.142;11.738;2022-08-21T04:40:16;101129.66;;;18.23;70.27
67029;BME280;53934;52.142;11.738;2022-08-21T04:42:45;101136.31;;;18.29;70.46
67029;BME280;53934;52.142;11.738;2022-08-21T04:45:21;101136.00;;;17.98;71.54
67029;BME280;53934;52.142;11.738;2022-08-21T04:47:49;101133.69;;;17.94;72.66
67029;BME280;53934;52.142;11.738;2022-08-21T04:50:17;101135.50;;;17.93;73.41
67029;BME280;53934;52.142;11.738;2022-08-21T04:52:44;101139.06;;;18.16;72.82
67029;BME280;53934;52.142;11.738;2022-08-21T04:55:11;101135.47;;;18.39;71.61
67029;BME280;53934;52.142;11.738;2022-08-21T04:57:39;101145.06;;;18.18;72.87
67029;BME280;53934;52.142;11.738;2022-08-21T05:00:06;101137.25;;;18.17;72.81
67029;BME280;53934;52.142;11.738;2022-08-21T05:02:35;101147.97;;;18.26;72.88
67029;BME280;53934;52.142;11.738;2022-08-21T05:05:03;101152.00;;;18.32;72.72
67029;BME280;53934;52.142;11.738;2022-08-21T05:07:31;101149.69;;;18.38;72.59
67029;BME280;53934;52.142;11.738;2022-08-21T05:09:58;101155.91;;;18.04;73.71
67029;BME280;53934;52.142;11.738;2022-08-21T05:12:25;101150.81;;;17.90;75.10
67029;BME280;53934;52.142;11.738;2022-08-21T05:14:52;101151.72;;;18.13;74.46
67029;BME280;53934;52.142;11.738;2022-08-21T05:17:18;101152.69;;;18.23;74.31
67029;BME280;53934;52.142;11.738;2022-08-21T05:19:46;101156.19;;;18.23;74.73
67029;BME280;53934;52.142;11.738;2022-08-21T05:22:19;101165.88;;;18.35;74.90
67029;BME280;53934;52.142;11.738;2022-08-21T05:24:45;101158.03;;;18.45;74.91
67029;BME280;53934;52.142;11.738;2022-08-21T05:27:12;101162.97;;;18.27;75.87
67029;BME280;53934;52.142;11.738;2022-08-21T05:29:38;101166.34;;;18.40;75.53
67029;BME280;53934;52.142;11.738;2022-08-21T05:32:08;101159.25;;;18.96;73.60
67029;BME280;53934;52.142;11.738;2022-08-21T05:34:35;101160.34;;;18.94;72.34
67029;BME280;53934;52.142;11.738;2022-08-21T05:37:03;101159.41;;;18.95;73.88
67029;BME280;53934;52.142;11.738;2022-08-21T05:39:30;101168.63;;;19.34;73.29
67029;BME280;53934;52.142;11.738;2022-08-21T05:41:57;101173.28;;;19.64;71.90
67029;BME280;53934;52.142;11.738;2022-08-21T05:44:23;101168.91;;;19.95;70.51
67029;BME280;53934;52.142;11.738;2022-08-21T05:46:49;101168.38;;;20.21;69.96
67029;BME280;53934;52.142;11.738;2022-08-21T05:49:16;101169.88;;;20.56;68.14
67029;BME280;53934;52.142;11.738;2022-08-21T05:51:42;101173.72;;;20.42;64.99
67029;BME280;53934;52.142;11.738;2022-08-21T05:54:10;101172.63;;;20.45;65.17
67029;BME280;53934;52.142;11.738;2022-08-21T05:56:37;101173.91;;;20.80;62.97
67029;BME280;53934;52.142;11.738;2022-08-21T05:59:03;101169.13;;;21.14;62.81
67029;BME280;53934;52.142;11.738;2022-08-21T06:01:30;101166.78;;;21.21;61.01
67029;BME280;53934;52.142;11.738;2022-08-21T06:03:56;101159.75;;;21.20;61.72
67029;BME280;53934;52.142;11.738;2022-08-21T06:06:23;101168.34;;;21.62;60.96
67029;BME280;53934;52.142;11.738;2022-08-21T06:08:49;101167.53;;;22.09;58.25
67029;BME280;53934;52.142;11.738;2022-08-21T06:11:17;101159.53;;;22.09;56.92
67029;BME280;53934;52.142;11.738;2022-08-21T06:13:43;101161.53;;;22.44;56.81
67029;BME280;53934;52.142;11.738;2022-08-21T06:16:11;101162.22;;;22.09;57.01
67029;BME280;53934;52.142;11.738;2022-08-21T06:18:39;101166.81;;;22.26;56.32
67029;BME280;53934;52.142;11.738;2022-08-21T06:21:06;101168.47;;;22.37;56.07
67029;BME280;53934;52.142;11.738;2022-08-21T06:23:34;101162.81;;;22.50;56.08
67029;BME280;53934;52.142;11.738;2022-08-21T06:26:01;101159.13;;;22.51;56.25
67029;BME280;53934;52.142;11.738;2022-08-21T06:28:28;101155.13;;;22.74;56.06
67029;BME280;53934;52.142;11.738;2022-08-21T06:30:55;101168.28;;;22.48;57.06
67029;BME280;53934;52.142;11.738;2022-08-21T06:33:21;101156.69;;;22.11;58.45
67029;BME280;53934;52.142;11.738;2022-08-21T06:35:48;101166.34;;;22.41;58.04
67029;BME280;53934;52.142;11.738;2022-08-21T06:38:15;101164.56;;;22.78;56.61
67029;BME280;53934;52.142;11.738;2022-08-21T06:40:41;101172.13;;;23.10;55.54
67029;BME280;53934;52.142;11.738;2022-08-21T06:43:09;101166.16;;;23.43;54.80
67029;BME280;53934;52.142;11.738;2022-08-21T06:45:37;101171.53;;;23.43;55.36
67029;BME280;53934;52.142;11.738;2022-08-21T06:48:04;101174.22;;;23.16;55.88
67029;BME280;53934;52.142;11.738;2022-08-21T06:50:32;101175.06;;;23.79;53.55
67029;BME280;53934;52.142;11.738;2022-08-21T06:53:00;101169.56;;;23.36;54.74
67029;BME280;53934;52.142;11.738;2022-08-21T06:55:27;101172.47;;;23.87;54.99
67029;BME280;53934;52.142;11.738;2022-08-21T06:57:53;101173.69;;;24.36;52.12
67029;BME280;53934;52.142;11.738;2022-08-21T07:00:20;101177.41;;;24.43;51.16
67029;BME280;53934;52.142;11.738;2022-08-21T07:02:48;101186.81;;;24.73;48.70
67029;BME280;53934;52.142;11.738;2022-08-21T07:05:14;101171.81;;;25.30;46.28
67029;BME280;53934;52.142;11.738;2022-08-21T07:07:40;101173.50;;;24.89;46.91
67029;BME280;53934;52.142;11.738;2022-08-21T07:10:07;101183.72;;;24.86;49.02
67029;BME280;53934;52.142;11.738;2022-08-21T07:12:34;101172.03;;;24.69;48.12
67029;BME280;53934;52.142;11.738;2022-08-21T07:15:00;101171.09;;;25.12;47.25
67029;BME280;53934;52.142;11.738;2022-08-21T07:17:27;101163.72;;;25.14;46.99
67029;BME280;53934;52.142;11.738;2022-08-21T07:19:55;101168.66;;;25.51;46.07
67029;BME280;53934;52.142;11.738;2022-08-21T07:22:22;101157.97;;;25.59;45.72
67029;BME280;53934;52.142;11.738;2022-08-21T07:24:48;101162.69;;;25.57;46.70
67029;BME280;53934;52.142;11.738;2022-08-21T07:27:15;101149.63;;;25.12;48.76
67029;BME280;53934;52.142;11.738;2022-08-21T07:29:41;101146.81;;;25.30;48.01
67029;BME280;53934;52.142;11.738;2022-08-21T07:32:07;101143.53;;;25.60;45.77
67029;BME280;53934;52.142;11.738;2022-08-21T07:34:34;101135.91;;;25.23;48.52
67029;BME280;53934;52.142;11.738;2022-08-21T07:37:02;101143.88;;;25.81;44.70
67029;BME280;53934;52.142;11.738;2022-08-21T07:39:28;101140.69;;;25.94;44.07
67029;BME280;53934;52.142;11.738;2022-08-21T07:41:54;101148.22;;;26.06;45.07
67029;BME280;53934;52.142;11.738;2022-08-21T07:44:21;101142.19;;;26.04;45.58
67029;BME280;53934;52.142;11.738;2022-08-21T07:46:47;101155.63;;;26.29;47.05
67029;BME280;53934;52.142;11.738;2022-08-21T07:49:13;101152.72;;;26.46;43.61
67029;BME280;53934;52.142;11.738;2022-08-21T07:51:40;101149.53;;;26.43;43.70
67029;BME280;53934;52.142;11.738;2022-08-21T07:54:08;101152.53;;;26.64;43.27
67029;BME280;53934;52.142;11.738;2022-08-21T07:56:34;101154.88;;;27.06;42.32
67029;BME280;53934;52.142;11.738;2022-08-21T07:59:01;101150.13;;;27.92;40.69
67029;BME280;53934;52.142;11.738;2022-08-21T08:01:28;101147.13;;;28.25;40.03
67029;BME280;53934;52.142;11.738;2022-08-21T08:03:54;101149.28;;;27.69;41.59
67029;BME280;53934;52.142;11.738;2022-08-21T08:06:21;101151.34;;;27.67;40.50
67029;BME280;53934;52.142;11.738;2022-08-21T08:08:48;101145.63;;;27.85;43.40
67029;BME280;53934;52.142;11.738;2022-08-21T08:11:16;101144.00;;;26.99;40.12
67029;BME280;53934;52.142;11.738;2022-08-21T08:13:44;101145.44;;;27.41;40.82
67029;BME280;53934;52.142;11.738;2022-08-21T08:16:12;101138.09;;;27.57;39.06
67029;BME280;53934;52.142;11.738;2022-08-21T08:18:38;101132.69;;;27.80;41.54
67029;BME280;53934;52.142;11.738;2022-08-21T08:21:05;101144.41;;;28.10;38.67
67029;BME280;53934;52.142;11.738;2022-08-21T08:23:31;101142.22;;;27.15;40.41
67029;BME280;53934;52.142;11.738;2022-08-21T08:25:58;101131.44;;;26.76;40.40
67029;BME280;53934;52.142;11.738;2022-08-21T08:28:26;101124.25;;;27.07;39.34
67029;BME280;53934;52.142;11.738;2022-08-21T08:30:52;101125.19;;;26.91;40.34
67029;BME280;53934;52.142;11.738;2022-08-21T08:33:19;101123.72;;;27.88;38.03
67029;BME280;53934;52.142;11.738;2022-08-21T08:35:48;101124.94;;;28.23;38.81
67029;BME280;53934;52.142;11.738;2022-08-21T08:38:16;101121.19;;;28.38;37.12
67029;BME280;53934;52.142;11.738;2022-08-21T08:40:47;101119.63;;;27.92;38.32
67029;BME280;53934;52.142;11.738;2022-08-21T08:43:17;101126.41;;;27.20;38.32
67029;BME280;53934;52.142;11.738;2022-08-21T08:45:47;101126.13;;;27.97;37.54
67029;BME280;53934;52.142;11.738;2022-08-21T08:48:19;101123.50;;;27.52;36.80
67029;BME280;53934;52.142;11.738;2022-08-21T08:50:49;101116.50;;;27.35;36.82
67029;BME280;53934;52.142;11.738;2022-08-21T08:53:22;101122.97;;;27.94;39.31
67029;BME280;53934;52.142;11.738;2022-08-21T08:55:51;101114.06;;;28.45;37.70
67029;BME280;53934;52.142;11.738;2022-08-21T08:58:22;101109.91;;;29.44;34.84
67029;BME280;53934;52.142;11.738;2022-08-21T09:00:52;101113.72;;;29.77;33.54
67029;BME280;53934;52.142;11.738;2022-08-21T09:03:20;101116.38;;;29.92;34.98
67029;BME280;53934;52.142;11.738;2022-08-21T09:05:53;101104.38;;;29.52;33.15
67029;BME280;53934;52.142;11.738;2022-08-21T09:08:32;101108.41;;;29.63;34.52
67029;BME280;53934;52.142;11.738;2022-08-21T09:11:07;101100.44;;;30.38;31.38
67029;BME280;53934;52.142;11.738;2022-08-21T09:13:45;101106.59;;;29.91;31.88
67029;BME280;53934;52.142;11.738;2022-08-21T09:16:21;101107.19;;;30.14;32.71
67029;BME280;53934;52.142;11.738;2022-08-21T09:18:59;101106.97;;;30.16;32.44
67029;BME280;53934;52.142;11.738;2022-08-21T09:21:37;101109.06;;;30.14;35.31
67029;BME280;53934;52.142;11.738;2022-08-21T09:24:22;101100.66;;;31.25;30.88
67029;BME280;53934;52.142;11.738;2022-08-21T09:26:57;101106.00;;;30.99;30.62
67029;BME280;53934;52.142;11.738;2022-08-21T09:29:30;101112.78;;;29.42;34.67
67029;BME280;53934;52.142;11.738;2022-08-21T09:31:58;101112.78;;;29.42;39.08
67029;BME280;53934;52.142;11.738;2022-08-21T09:34:28;101118.31;;;30.26;39.21
67029;BME280;53934;52.142;11.738;2022-08-21T09:36:55;101101.03;;;30.61;33.02
67029;BME280;53934;52.142;11.738;2022-08-21T09:39:24;101101.97;;;30.81;32.39
67029;BME280;53934;52.142;11.738;2022-08-21T09:41:56;101103.25;;;30.92;31.38
67029;BME280;53934;52.142;11.738;2022-08-21T09:44:26;101104.38;;;30.29;30.55
67029;BME280;53934;52.142;11.738;2022-08-21T09:46:53;101114.00;;;29.40;32.46
67029;BME280;53934;52.142;11.738;2022-08-21T09:49:28;101109.00;;;28.86;32.27
67029;BME280;53934;52.142;11.738;2022-08-21T09:51:55;101105.91;;;29.40;32.88
67029;BME280;53934;52.142;11.738;2022-08-21T09:54:26;101103.03;;;29.41;32.05
67029;BME280;53934;52.142;11.738;2022-08-21T09:56:56;101099.34;;;29.70;32.24
67029;BME280;53934;52.142;11.738;2022-08-21T09:59:41;101089.81;;;29.53;35.37
67029;BME280;53934;52.142;11.738;2022-08-21T10:02:23;101087.00;;;29.04;33.73
67029;BME280;53934;52.142;11.738;2022-08-21T10:04:53;101088.19;;;28.80;35.16
67029;BME280;53934;52.142;11.738;2022-08-21T10:07:21;101084.78;;;29.92;33.99
67029;BME280;53934;52.142;11.738;2022-08-21T10:09:58;101078.22;;;30.90;32.19
67029;BME280;53934;52.142;11.738;2022-08-21T10:12:29;101084.69;;;31.76;31.44
67029;BME280;53934;52.142;11.738;2022-08-21T10:15:03;101079.66;;;31.86;30.05
67029;BME280;53934;52.142;11.738;2022-08-21T10:17:43;101082.59;;;31.71;32.44
67029;BME280;53934;52.142;11.738;2022-08-21T10:20:17;101075.94;;;31.74;30.82
67029;BME280;53934;52.142;11.738;2022-08-21T10:22:55;101083.56;;;31.37;31.82
67029;BME280;53934;52.142;11.738;2022-08-21T10:25:31;101082.59;;;31.84;31.89
67029;BME280;53934;52.142;11.738;2022-08-21T10:28:00;101077.16;;;31.98;28.98
67029;BME280;53934;52.142;11.738;2022-08-21T10:30:37;101078.81;;;32.05;29.99
67029;BME280;53934;52.142;11.738;2022-08-21T10:33:13;101085.75;;;31.55;29.33
67029;BME280;53934;52.142;11.738;2022-08-21T10:35:49;101072.88;;;30.97;32.58
67029;BME280;53934;52.142;11.738;2022-08-21T10:38:36;101078.28;;;30.97;30.17
67029;BME280;53934;52.142;11.738;2022-08-21T10:41:09;101080.09;;;30.89;31.15
67029;BME280;53934;52.142;11.738;2022-08-21T10:43:44;101074.16;;;30.19;32.57
67029;BME280;53934;52.142;11.738;2022-08-21T10:46:16;101067.91;;;31.13;32.66
67029;BME280;53934;52.142;11.738;2022-08-21T10:48:49;101064.44;;;32.11;31.67
67029;BME280;53934;52.142;11.738;2022-08-21T10:51:22;101072.56;;;32.05;31.36
67029;BME280;53934;52.142;11.738;2022-08-21T10:53:59;101063.41;;;32.76;30.15
67029;BME280;53934;52.142;11.738;2022-08-21T10:56:31;101066.25;;;32.37;28.87
67029;BME280;53934;52.142;11.738;2022-08-21T10:59:15;101053.13;;;31.16;32.63
67029;BME280;53934;52.142;11.738;2022-08-21T11:01:50;101056.84;;;30.20;32.73
67029;BME280;53934;52.142;11.738;2022-08-21T11:04:20;101057.72;;;31.22;32.43
67029;BME280;53934;52.142;11.738;2022-08-21T11:06:53;101053.75;;;31.18;28.72
67029;BME280;53934;52.142;11.738;2022-08-21T11:09:25;101061.50;;;31.41;32.23
67029;BME280;53934;52.142;11.738;2022-08-21T11:11:55;101059.66;;;31.54;32.45
67029;BME280;53934;52.142;11.738;2022-08-21T11:14:29;101049.50;;;30.89;32.61
67029;BME280;53934;52.142;11.738;2022-08-21T11:17:02;101056.88;;;30.54;31.14
67029;BME280;53934;52.142;11.738;2022-08-21T11:19:35;101054.50;;;30.85;31.95
67029;BME280;53934;52.142;11.738;2022-08-21T11:22:13;101044.38;;;31.20;30.37
67029;BME280;53934;52.142;11.738;2022-08-21T11:24:50;101054.06;;;30.82;30.56
67029;BME280;53934;52.142;11.738;2022-08-21T11:27:23;101056.97;;;30.74;33.20
67029;BME280;53934;52.142;11.738;2022-08-21T11:29:54;101054.56;;;30.51;34.24
67029;BME280;53934;52.142;11.738;2022-08-21T11:35:32;101061.19;;;29.59;33.72
67029;BME280;53934;52.142;11.738;2022-08-21T11:38:11;101063.56;;;29.89;33.03
67029;BME280;53934;52.142;11.738;2022-08-21T11:40:51;101050.03;;;29.68;33.25
67029;BME280;53934;52.142;11.738;2022-08-21T11:43:28;101048.84;;;29.77;33.90
67029;BME280;53934;52.142;11.738;2022-08-21T11:46:03;101049.03;;;29.76;30.28
67029;BME280;53934;52.142;11.738;2022-08-21T11:48:40;101046.72;;;29.45;31.09
67029;BME280;53934;52.142;11.738;2022-08-21T11:51:14;101046.78;;;29.79;29.45
67029;BME280;53934;52.142;11.738;2022-08-21T11:53:47;101044.75;;;30.16;32.76
67029;BME280;53934;52.142;11.738;2022-08-21T11:56:20;101038.75;;;30.55;32.94
67029;BME280;53934;52.142;11.738;2022-08-21T11:58:49;101039.81;;;30.60;29.81
67029;BME280;53934;52.142;11.738;2022-08-21T12:01:19;101044.03;;;30.76;28.77
67029;BME280;53934;52.142;11.738;2022-08-21T12:03:54;101039.91;;;30.05;29.90
67029;BME280;53934;52.142;11.738;2022-08-21T12:06:29;101030.31;;;30.30;31.33
67029;BME280;53934;52.142;11.738;2022-08-21T12:08:59;101039.81;;;30.60;32.74
67029;BME280;53934;52.142;11.738;2022-08-21T12:11:27;101028.38;;;30.65;30.34
67029;BME280;53934;52.142;11.738;2022-08-21T12:13:56;101019.00;;;30.67;30.17
67029;BME280;53934;52.142;11.738;2022-08-21T12:16:31;101025.59;;;30.99;31.26
67029;BME280;53934;52.142;11.738;2022-08-21T12:19:03;101022.81;;;30.79;31.68
67029;BME280;53934;52.142;11.738;2022-08-21T12:21:30;101028.97;;;31.21;31.96
67029;BME280;53934;52.142;11.738;2022-08-21T12:24:04;101021.69;;;31.48;30.32
67029;BME280;53934;52.142;11.738;2022-08-21T12:26:49;101020.63;;;31.95;29.01
67029;BME280;53934;52.142;11.738;2022-08-21T12:29:22;101023.13;;;31.96;30.32
67029;BME280;53934;52.142;11.738;2022-08-21T12:31:56;101014.78;;;31.91;29.03
67029;BME280;53934;52.142;11.738;2022-08-21T12:34:25;101026.44;;;31.98;29.93
67029;BME280;53934;52.142;11.738;2022-08-21T12:36:58;101020.81;;;32.00;27.84
67029;BME280;53934;52.142;11.738;2022-08-21T12:39:29;101014.34;;;32.14;28.73
67029;BME280;53934;52.142;11.738;2022-08-21T12:42:00;101011.91;;;31.73;27.81
67029;BME280;53934;52.142;11.738;2022-08-21T12:44:34;101018.75;;;31.49;29.26
67029;BME280;53934;52.142;11.738;2022-08-21T12:47:05;101012.06;;;30.99;29.62
67029;BME280;53934;52.142;11.738;2022-08-21T12:49:35;101015.66;;;31.72;29.71
67029;BME280;53934;52.142;11.738;2022-08-21T12:52:09;101015.84;;;31.18;31.17
67029;BME280;53934;52.142;11.738;2022-08-21T12:54:40;101011.09;;;31.59;30.06